Stanley, China
Current Conditions -  °F | °C
As of 2:00 AM on Thursday 29 Jan 2015 (Local Time) from VHHH Reporting Station
Scattered Clouds Scattered Clouds  
Wind Chill: 63°   Ceiling: Unl
Heat Index: 63°   Visibility: 6mi
Dew Point: 52°   Wind: 20mph
Humidity: 68%   Direction: 110°ESE
Pressure: 30.09"   Gusts: NA
Location:  22.21°N, 114.22°E
Report Text: VHHH 281800Z 11017KT 9999 FEW028 SCT035 17/11 Q1019 NOSIG
Loading
Personal Weather Stations






























Interactive Weather Map New forecast layout! Learn more

10-Day Weather Forecast

Advertisements
Track Severe Weather on mobile